EGHH/BOH METAR and TAF weather

Enter ICAO airport designator
Station Type Date Time Source
EGHH METAR 2021/03/09 09:20 UTC NOAA

EGHH 090920Z 29004KT 220V020 CAVOK 06/03 Q1022


Station Type Date Time Source
EGHH Decoded METAR 2021/03/09 09:20 UTC NOAA

Bournemouth Airport, United Kingdom (EGHH) 50-47N 001-50W 0M
Mar 09, 2021 - 04:20 AM EST / 2021.03.09 0920 UTC
Wind: from the WNW (290 degrees) at 5 MPH (4 KT) (direction variable):0
Visibility: greater than 7 mile(s):0
Temperature: 42 F (6 C)
Dew Point: 37 F (3 C)
Relative Humidity: 81%
Pressure (altimeter): 30.18 in. Hg (1022 hPa)
ob: EGHH 090920Z 29004KT 220V020 CAVOK 06/03 Q1022
cycle: 9

Station Type Date Time Source
EGHH TAF 2020/02/21 21:06 UTC NOAA

TAF EGHH 210200Z 2021/2123 CNL

Example: see airport list